createdAt,value
2023-04-17T00:03:12.280Z,24.37
2023-04-17T00:05:39.804Z,25.50
2023-04-17T00:08:07.561Z,26.00
2023-04-17T00:10:34.856Z,25.93
2023-04-17T00:13:01.969Z,26.40
2023-04-17T00:15:29.209Z,26.57
2023-04-17T00:17:57.016Z,29.03
2023-04-17T00:25:29.021Z,28.47
2023-04-17T00:27:56.205Z,28.00
2023-04-17T00:30:23.421Z,27.10
2023-04-17T00:32:50.727Z,30.20
2023-04-17T00:35:18.093Z,30.27
2023-04-17T00:37:45.633Z,29.47
2023-04-17T00:40:13.565Z,29.00
2023-04-17T00:47:45.711Z,30.67
2023-04-17T00:50:13.321Z,28.40
2023-04-17T00:52:41.075Z,28.00
2023-04-17T00:55:08.482Z,29.00
2023-04-17T00:57:35.692Z,28.30
2023-04-17T01:00:03.919Z,30.80
2023-04-17T01:02:31.396Z,29.07
2023-04-17T01:07:54.904Z,30.10
2023-04-17T01:10:22.131Z,28.13
2023-04-17T01:13:02.116Z,30.27
2023-04-17T01:15:29.732Z,31.97
2023-04-17T01:17:57.261Z,30.90
2023-04-17T01:20:25.485Z,29.37
2023-04-17T01:22:53.798Z,31.87
2023-04-17T01:30:27.823Z,32.83
2023-04-17T01:32:55.197Z,32.43
2023-04-17T01:35:23.672Z,29.47
2023-04-17T01:37:51.674Z,31.33
2023-04-17T01:40:19.110Z,29.13
2023-04-17T01:42:46.332Z,29.13
2023-04-17T01:45:13.361Z,27.83
2023-04-17T01:52:45.530Z,39.67
2023-04-17T01:55:12.832Z,29.27
2023-04-17T01:57:40.616Z,47.43
2023-04-17T02:00:10.360Z,48.53
2023-04-17T02:02:38.395Z,34.73
2023-04-17T02:05:06.662Z,36.17
2023-04-17T02:07:34.143Z,28.60
2023-04-17T02:15:09.289Z,29.63
2023-04-17T02:17:36.322Z,26.43
2023-04-17T02:20:06.501Z,30.07
2023-04-17T02:22:34.405Z,27.90
2023-04-17T02:25:01.642Z,28.87
2023-04-17T02:27:29.344Z,28.43
2023-04-17T02:29:56.689Z,27.83
2023-04-17T02:37:36.657Z,28.70
2023-04-17T02:40:06.141Z,28.43
2023-04-17T02:42:33.366Z,25.90
2023-04-17T02:45:00.652Z,28.10
2023-04-17T02:47:27.880Z,28.47
2023-04-17T02:49:55.732Z,29.03
2023-04-17T02:52:26.178Z,26.70
2023-04-17T02:59:58.766Z,32.27
2023-04-17T03:02:26.065Z,29.07
2023-04-17T03:04:53.415Z,29.00
2023-04-17T03:07:23.537Z,35.87
2023-04-17T03:09:53.794Z,29.60
2023-04-17T03:12:21.165Z,28.43
2023-04-17T03:14:48.447Z,29.27
2023-04-17T03:20:26.709Z,31.07
2023-04-17T03:22:53.668Z,28.67
2023-04-17T03:25:21.049Z,32.00
2023-04-17T03:27:48.983Z,29.93
2023-04-17T03:30:19.023Z,29.97
2023-04-17T03:32:46.481Z,35.73
2023-04-17T03:35:14.222Z,34.13
2023-04-17T03:42:47.458Z,30.87
2023-04-17T03:45:25.224Z,31.83
2023-04-17T03:47:52.240Z,30.30
2023-04-17T03:50:20.345Z,30.30
2023-04-17T03:52:49.147Z,34.57
2023-04-17T03:55:16.883Z,30.27
2023-04-17T03:57:44.106Z,31.30
2023-04-17T04:00:13.809Z,30.87
2023-04-17T04:07:42.062Z,31.23
2023-04-17T04:10:10.143Z,30.80
2023-04-17T04:12:37.395Z,35.50
2023-04-17T04:15:05.856Z,30.60
2023-04-17T04:17:33.392Z,33.30
2023-04-17T04:20:00.780Z,29.60
2023-04-17T04:22:34.304Z,30.47
2023-04-17T04:30:10.930Z,30.80
2023-04-17T04:32:38.540Z,29.93
2023-04-17T04:35:07.033Z,31.60
2023-04-17T04:37:35.468Z,30.60
2023-04-17T04:40:09.942Z,30.00
2023-04-17T04:42:39.553Z,28.13
2023-04-17T04:48:05.192Z,26.53
2023-04-17T04:50:32.401Z,25.40
2023-04-17T04:52:59.648Z,28.13
2023-04-17T04:55:27.541Z,25.87
2023-04-17T04:57:54.915Z,24.87
2023-04-17T05:00:23.187Z,25.27
2023-04-17T05:02:50.738Z,24.30
2023-04-17T05:10:25.132Z,21.03
2023-04-17T05:12:52.789Z,21.50
2023-04-17T05:15:20.085Z,19.00
2023-04-17T05:17:47.331Z,20.90
2023-04-17T05:20:15.392Z,20.97
2023-04-17T05:22:42.861Z,21.43
2023-04-17T05:25:10.443Z,20.43
2023-04-17T05:32:48.236Z,23.80
2023-04-17T05:35:15.552Z,25.27
2023-04-17T05:37:43.221Z,26.30
2023-04-17T05:40:11.676Z,28.60
2023-04-17T05:42:38.905Z,25.47
2023-04-17T05:45:06.807Z,26.17
2023-04-17T05:47:33.895Z,24.90
2023-04-17T05:52:40.937Z,25.73
2023-04-17T05:55:08.860Z,24.83
2023-04-17T05:57:36.492Z,28.07
2023-04-17T06:00:10.122Z,25.63
2023-04-17T06:02:38.605Z,30.50
2023-04-17T06:05:07.603Z,27.97
2023-04-17T06:07:36.135Z,27.13
2023-04-17T06:15:09.780Z,29.07
2023-04-17T06:17:38.025Z,28.60
2023-04-17T06:20:09.749Z,27.70
2023-04-17T06:22:36.994Z,29.43
2023-04-17T06:25:04.250Z,28.23
2023-04-17T06:27:31.598Z,27.67
2023-04-17T06:29:59.143Z,27.53
2023-04-17T06:37:33.002Z,27.40
2023-04-17T06:40:00.852Z,28.50
2023-04-17T06:42:39.024Z,31.23
2023-04-17T06:45:07.635Z,28.27
2023-04-17T06:47:34.579Z,27.50
2023-04-17T06:50:01.651Z,28.03
2023-04-17T06:52:28.629Z,27.37
2023-04-17T07:00:07.598Z,27.60
2023-04-17T07:02:35.004Z,29.63
2023-04-17T07:05:05.978Z,27.87
2023-04-17T07:07:34.065Z,25.53
2023-04-17T07:10:01.124Z,27.83
2023-04-17T07:12:31.529Z,25.90
2023-04-17T07:14:58.774Z,26.37
2023-04-17T07:22:31.632Z,25.27
2023-04-17T07:24:59.174Z,25.57
2023-04-17T07:27:26.803Z,29.20
2023-04-17T07:29:54.870Z,26.90
2023-04-17T07:32:23.616Z,25.90
2023-04-17T07:34:50.985Z,26.33
2023-04-17T07:37:18.259Z,25.87
2023-04-17T07:44:56.439Z,25.47
2023-04-17T07:47:24.052Z,25.40
2023-04-17T07:49:51.391Z,25.97
2023-04-17T07:52:18.546Z,24.13
2023-04-17T07:54:47.054Z,21.97
2023-04-17T07:57:15.473Z,23.60
2023-04-17T07:59:42.610Z,22.23
2023-04-17T08:07:43.053Z,22.27
2023-04-17T08:10:11.050Z,21.90
2023-04-17T08:12:38.940Z,22.20
2023-04-17T08:15:07.154Z,23.00
2023-04-17T08:17:36.820Z,23.27
2023-04-17T08:20:11.525Z,22.97
2023-04-17T08:22:44.490Z,24.00
2023-04-17T08:29:27.326Z,24.30
2023-04-17T08:32:06.820Z,23.93
2023-04-17T08:34:39.592Z,22.83
2023-04-17T08:37:06.825Z,22.57
2023-04-17T08:39:34.326Z,22.23
2023-04-17T08:42:06.907Z,21.90
2023-04-17T08:47:25.656Z,21.70
2023-04-17T08:49:57.870Z,21.83
2023-04-17T08:52:25.020Z,20.47
2023-04-17T08:54:55.574Z,17.73
2023-04-17T08:57:23.740Z,19.97
2023-04-17T08:59:51.008Z,16.50
2023-04-17T09:02:18.836Z,16.57
2023-04-17T09:09:56.745Z,16.90
2023-04-17T09:12:25.378Z,15.87
2023-04-17T09:14:53.225Z,14.53
2023-04-17T09:17:22.539Z,14.77
2023-04-17T09:20:06.792Z,11.70
2023-04-17T09:22:34.353Z,12.03
2023-04-17T09:25:03.082Z,12.27
2023-04-17T09:31:53.561Z,10.20
2023-04-17T09:34:21.349Z,11.00
2023-04-17T09:36:55.293Z,11.10
2023-04-17T09:39:24.344Z,10.87
2023-04-17T09:42:02.974Z,12.30
2023-04-17T09:44:30.828Z,10.43
2023-04-17T09:47:01.661Z,11.50
2023-04-17T09:49:34.503Z,10.23
2023-04-17T09:55:12.206Z,11.00
2023-04-17T09:57:41.432Z,11.83
2023-04-17T10:00:14.381Z,11.90
2023-04-17T10:02:43.283Z,11.13
2023-04-17T10:05:11.650Z,11.00
2023-04-17T10:07:40.040Z,12.33
2023-04-17T10:10:10.408Z,11.40
2023-04-17T10:17:43.822Z,9.57
2023-04-17T10:20:34.882Z,8.67
2023-04-17T10:23:32.227Z,8.87
2023-04-17T10:26:41.293Z,7.87
2023-04-17T10:29:09.380Z,8.47
2023-04-17T10:32:25.177Z,8.23
2023-04-17T10:40:20.379Z,5.80
2023-04-17T10:43:03.209Z,6.80
2023-04-17T10:45:56.287Z,6.33
2023-04-17T10:48:28.415Z,6.07
2023-04-17T10:50:58.068Z,5.30
2023-04-17T10:53:42.272Z,5.00
2023-04-17T10:56:11.968Z,5.50
2023-04-17T11:03:47.025Z,6.07
2023-04-17T11:06:14.641Z,6.20
2023-04-17T11:08:42.972Z,5.83
2023-04-17T11:11:11.346Z,6.27
2023-04-17T11:13:41.750Z,6.53
2023-04-17T11:16:09.548Z,5.17
2023-04-17T11:18:37.844Z,5.47
2023-04-17T11:23:51.652Z,5.43
2023-04-17T11:26:19.936Z,4.63
2023-04-17T11:28:47.726Z,4.37
2023-04-17T11:31:17.225Z,5.17
2023-04-17T11:33:48.553Z,4.70
2023-04-17T11:36:15.852Z,5.03
2023-04-17T11:38:47.415Z,5.63
2023-04-17T11:46:14.809Z,5.33
2023-04-17T11:48:42.332Z,5.40
2023-04-17T11:51:09.424Z,5.87
2023-04-17T11:53:37.292Z,6.00
2023-04-17T11:56:15.397Z,5.60
2023-04-17T11:58:49.826Z,6.10
2023-04-17T12:01:20.237Z,5.63
2023-04-17T12:08:55.328Z,6.77
2023-04-17T12:11:33.500Z,6.63
2023-04-17T12:14:03.265Z,6.27
2023-04-17T12:16:31.106Z,6.30
2023-04-17T12:18:58.636Z,5.57
2023-04-17T12:21:26.575Z,5.47
2023-04-17T12:23:58.632Z,6.27
2023-04-17T12:31:32.557Z,6.33
2023-04-17T12:33:59.639Z,5.00
2023-04-17T12:36:27.427Z,5.67
2023-04-17T12:38:54.444Z,5.80
2023-04-17T12:41:21.767Z,5.13
2023-04-17T12:43:49.377Z,5.00
2023-04-17T12:46:17.822Z,5.60
2023-04-17T12:53:52.616Z,5.40
2023-04-17T12:56:21.804Z,4.73
2023-04-17T12:58:49.320Z,4.63
2023-04-17T13:01:25.850Z,4.67
2023-04-17T13:03:53.320Z,4.93
2023-04-17T13:06:21.327Z,4.13
2023-04-17T13:11:27.441Z,4.03
2023-04-17T13:13:54.450Z,4.17
2023-04-17T13:16:22.998Z,3.93
2023-04-17T13:18:50.203Z,4.50
2023-04-17T13:21:17.424Z,4.83
2023-04-17T13:23:44.675Z,4.37
2023-04-17T13:26:14.182Z,4.80
2023-04-17T13:33:41.807Z,4.73
2023-04-17T13:36:09.005Z,4.10
2023-04-17T13:38:36.751Z,4.27
2023-04-17T13:41:03.934Z,5.67
2023-04-17T13:43:30.781Z,5.30
2023-04-17T13:45:58.183Z,4.80
2023-04-17T13:48:32.563Z,4.67
2023-04-17T13:56:07.833Z,3.73
2023-04-17T13:58:36.384Z,3.93
2023-04-17T14:01:04.932Z,3.93
2023-04-17T14:03:38.277Z,3.70
2023-04-17T14:06:07.854Z,3.33
2023-04-17T14:08:35.775Z,3.70
2023-04-17T14:11:03.244Z,3.43
2023-04-17T14:18:35.638Z,3.70
2023-04-17T14:21:02.928Z,3.73
2023-04-17T14:23:30.238Z,3.77
2023-04-17T14:25:58.520Z,3.60
2023-04-17T14:28:26.384Z,3.33
2023-04-17T14:30:53.607Z,3.83
2023-04-17T14:41:09.179Z,7.27
2023-04-17T14:43:36.384Z,3.37
2023-04-17T14:46:05.141Z,3.07
2023-04-17T14:48:36.245Z,3.83
2023-04-17T14:51:13.785Z,3.30
2023-04-17T14:53:41.329Z,4.03
2023-04-17T14:56:12.879Z,4.13
2023-04-17T15:01:42.612Z,4.53
2023-04-17T15:04:10.007Z,3.83
2023-04-17T15:06:40.578Z,3.73
2023-04-17T15:09:08.519Z,3.80
2023-04-17T15:11:36.232Z,3.80
2023-04-17T15:14:07.225Z,3.60
2023-04-17T15:16:34.555Z,4.27
2023-04-17T15:22:01.320Z,4.50
2023-04-17T15:24:28.778Z,3.43
2023-04-17T15:26:56.836Z,3.77
2023-04-17T15:29:24.643Z,4.20
2023-04-17T15:31:53.197Z,3.87
2023-04-17T15:34:21.147Z,4.20
2023-04-17T15:36:49.327Z,4.30
2023-04-17T15:44:22.317Z,4.83
2023-04-17T15:46:50.220Z,4.80
2023-04-17T15:49:17.672Z,4.40
2023-04-17T15:51:45.147Z,5.13
2023-04-17T15:54:12.770Z,3.83
2023-04-17T15:56:40.542Z,3.93
2023-04-17T15:59:08.132Z,4.00
2023-04-17T16:07:25.546Z,4.43
2023-04-17T16:09:53.431Z,4.43
2023-04-17T16:12:20.419Z,5.43
2023-04-17T16:14:48.730Z,4.60
2023-04-17T16:17:16.466Z,4.33
2023-04-17T16:19:43.631Z,4.40
2023-04-17T16:22:10.691Z,4.70
2023-04-17T16:29:45.942Z,4.83
2023-04-17T16:32:15.166Z,4.80
2023-04-17T16:34:42.532Z,4.30
2023-04-17T16:37:09.509Z,5.33
2023-04-17T16:39:36.817Z,4.53
2023-04-17T16:42:03.871Z,5.10
2023-04-17T16:44:30.728Z,4.87
2023-04-17T16:52:03.487Z,4.40
2023-04-17T16:54:34.167Z,5.07
2023-04-17T16:57:01.211Z,4.47
2023-04-17T16:59:28.456Z,5.03
2023-04-17T17:01:55.925Z,4.83
2023-04-17T17:04:23.295Z,6.10
2023-04-17T17:06:50.572Z,6.03
2023-04-17T17:14:18.508Z,5.47
2023-04-17T17:16:45.908Z,5.30
2023-04-17T17:19:15.543Z,6.20
2023-04-17T17:21:42.784Z,5.70
2023-04-17T17:24:09.738Z,5.97
2023-04-17T17:26:37.205Z,5.97
2023-04-17T17:29:16.970Z,5.80
2023-04-17T17:36:52.977Z,6.07
2023-04-17T17:39:21.115Z,6.00
2023-04-17T17:41:48.612Z,5.73
2023-04-17T17:44:15.942Z,6.00
2023-04-17T17:46:46.825Z,6.07
2023-04-17T17:49:14.350Z,6.17
2023-04-17T17:51:44.534Z,5.90
2023-04-17T17:57:06.342Z,6.60
2023-04-17T17:59:36.970Z,5.87
2023-04-17T18:02:08.289Z,7.03
2023-04-17T18:04:39.636Z,6.23
2023-04-17T18:07:07.563Z,6.33
2023-04-17T18:09:34.882Z,6.77
2023-04-17T18:12:03.276Z,7.00
2023-04-17T18:17:12.801Z,6.43
2023-04-17T18:19:41.444Z,6.33
2023-04-17T18:22:11.245Z,6.47
2023-04-17T18:24:38.581Z,6.87
2023-04-17T18:27:05.962Z,7.33
2023-04-17T18:29:34.388Z,7.33
2023-04-17T18:32:03.743Z,7.37
2023-04-17T18:39:39.199Z,7.50
2023-04-17T18:42:06.623Z,8.83
2023-04-17T18:44:34.020Z,8.10
2023-04-17T18:47:01.376Z,8.07
2023-04-17T18:49:28.684Z,8.10
2023-04-17T18:51:56.106Z,7.03
2023-04-17T18:54:24.275Z,8.27
2023-04-17T18:56:52.627Z,7.30
2023-04-17T19:04:26.791Z,7.33
2023-04-17T19:06:54.292Z,7.33
2023-04-17T19:09:22.014Z,7.77
2023-04-17T19:11:49.475Z,6.77
2023-04-17T19:14:16.522Z,8.00
2023-04-17T19:16:45.802Z,7.50
2023-04-17T19:19:15.429Z,8.13
2023-04-17T19:26:42.119Z,7.40
2023-04-17T19:29:10.219Z,7.70
2023-04-17T19:31:37.972Z,8.60
2023-04-17T19:34:06.406Z,7.67
2023-04-17T19:36:33.695Z,7.83
2023-04-17T19:39:04.107Z,7.37
2023-04-17T19:41:32.334Z,8.70
2023-04-17T19:48:53.440Z,6.70
2023-04-17T19:51:21.124Z,7.97
2023-04-17T19:53:48.703Z,6.53
2023-04-17T19:56:17.310Z,7.43
2023-04-17T19:58:45.123Z,8.50
2023-04-17T20:01:12.677Z,7.57
2023-04-17T20:03:41.586Z,7.07
2023-04-17T20:08:49.826Z,7.37
2023-04-17T20:11:17.163Z,8.17
2023-04-17T20:13:44.696Z,8.63
2023-04-17T20:16:12.175Z,7.10
2023-04-17T20:18:41.376Z,7.77
2023-04-17T20:21:12.198Z,7.77
2023-04-17T20:23:40.042Z,6.80
2023-04-17T20:31:12.816Z,7.87
2023-04-17T20:33:40.780Z,6.50
2023-04-17T20:36:08.242Z,7.27
2023-04-17T20:38:35.845Z,7.47
2023-04-17T20:41:03.064Z,6.90
2023-04-17T20:43:32.639Z,6.50
2023-04-17T20:46:00.337Z,7.50
2023-04-17T20:53:34.781Z,7.87
2023-04-17T20:56:02.164Z,7.73
2023-04-17T20:58:29.542Z,7.07
2023-04-17T21:01:01.060Z,7.07
2023-04-17T21:03:30.385Z,7.13
2023-04-17T21:06:03.017Z,7.10
2023-04-17T21:08:30.620Z,7.07
2023-04-17T21:16:02.539Z,7.23
2023-04-17T21:18:35.771Z,7.93
2023-04-17T21:21:06.050Z,6.60
2023-04-17T21:23:52.367Z,6.33
2023-04-17T21:26:37.253Z,6.87
2023-04-17T21:29:19.647Z,6.17
2023-04-17T21:31:48.642Z,6.50
2023-04-17T21:34:34.083Z,6.77
2023-04-17T21:37:24.398Z,6.80
2023-04-17T21:45:19.777Z,5.47
2023-04-17T21:47:56.674Z,6.03
2023-04-17T21:50:38.869Z,6.33
2023-04-17T21:53:27.530Z,6.60
2023-04-17T21:55:57.425Z,6.67
2023-04-17T21:58:24.869Z,6.33
2023-04-17T22:01:05.135Z,6.57
2023-04-17T22:03:34.283Z,6.60
2023-04-17T22:06:11.569Z,6.80
2023-04-17T22:13:47.741Z,6.73
2023-04-17T22:16:20.760Z,6.70
2023-04-17T22:18:58.792Z,6.60
2023-04-17T22:24:09.357Z,7.73
2023-04-17T22:26:56.988Z,7.80
2023-04-17T22:29:46.027Z,6.97
2023-04-17T22:32:25.751Z,6.80
2023-04-17T22:35:17.613Z,7.17
2023-04-17T22:38:21.414Z,6.93
2023-04-17T22:45:22.532Z,6.37
2023-04-17T22:47:54.898Z,6.93
2023-04-17T22:50:23.355Z,7.27
2023-04-17T22:52:52.918Z,7.37
2023-04-17T22:55:20.509Z,6.97
2023-04-17T22:57:47.796Z,6.80
2023-04-17T23:00:20.705Z,7.07
2023-04-17T23:07:55.062Z,7.40
2023-04-17T23:10:43.710Z,7.97
2023-04-17T23:13:13.652Z,8.57
2023-04-17T23:15:40.964Z,7.63
2023-04-17T23:18:49.894Z,7.50
2023-04-17T23:21:17.227Z,8.27
2023-04-17T23:23:52.987Z,7.53
2023-04-17T23:26:21.702Z,7.50
2023-04-17T23:28:51.321Z,8.07
2023-04-17T23:36:40.854Z,8.77
2023-04-17T23:39:11.120Z,8.60
2023-04-17T23:41:41.747Z,7.57
2023-04-17T23:44:09.328Z,8.27
2023-04-17T23:46:54.608Z,7.90
2023-04-17T23:49:53.272Z,7.20
2023-04-17T23:52:46.414Z,7.27
2023-04-17T23:55:19.142Z,7.90
2023-04-17T23:58:02.226Z,7.63
